Time;durP1;ratioP1;P1;durP2;ratioP2;P2;SDS_P1;SDS_P2;PMS_P1;PMS_P2;Temp;Humidity;BMP_temperature;BMP_pressure;BME280_temperature;BME280_humidity;BME280_pressure;Samples;Min_cycle;Max_cycle;Signal;HPM_P1;HPM_P2
2023/03/04 00:00:30;;;;;;;18.65;4.35;;;;;;;6.81;100.00;102126.44;4947158;28;20053;-73
2023/03/04 00:02:57;;;;;;;17.17;4.13;;;;;;;6.81;100.00;102120.13;4946380;28;20753;-77
2023/03/04 00:05:23;;;;;;;21.08;4.43;;;;;;;6.77;100.00;102125.53;4947266;28;20098;-76
2023/03/04 00:07:50;;;;;;;24.90;5.68;;;;;;;6.78;100.00;102121.63;4947529;28;20627;-74
2023/03/04 00:10:16;;;;;;;23.17;5.05;;;;;;;6.77;100.00;102127.47;4947520;28;20051;-76
2023/03/04 00:12:43;;;;;;;12.55;3.40;;;;;;;6.65;100.00;102121.91;4943511;28;20062;-74
2023/03/04 00:15:09;;;;;;;14.85;4.35;;;;;;;6.70;100.00;102129.94;4946441;28;20058;-75
2023/03/04 00:17:36;;;;;;;23.30;4.88;;;;;;;6.63;100.00;102115.94;4947134;28;20089;-75
2023/03/04 00:20:03;;;;;;;15.50;4.32;;;;;;;6.73;100.00;102132.03;4947022;28;20054;-75
2023/03/04 00:22:29;;;;;;;19.48;5.00;;;;;;;6.74;100.00;102133.63;4946213;28;20093;-75
2023/03/04 00:24:56;;;;;;;30.27;5.55;;;;;;;6.75;100.00;102130.53;4946973;28;20051;-75
2023/03/04 00:27:22;;;;;;;24.77;5.22;;;;;;;6.72;100.00;102127.69;4945110;28;20055;-76
2023/03/04 00:29:48;;;;;;;17.55;5.68;;;;;;;6.72;100.00;102133.97;4944991;28;20428;-75
2023/03/04 00:32:17;;;;;;;18.60;5.47;;;;;;;6.72;100.00;102122.19;4946742;28;20430;-75
2023/03/04 00:34:43;;;;;;;24.02;5.28;;;;;;;6.72;100.00;102128.47;4948380;28;20130;-75
2023/03/04 00:37:10;;;;;;;20.00;4.82;;;;;;;6.71;100.00;102120.56;4948843;28;20065;-75
2023/03/04 00:39:36;;;;;;;19.40;4.60;;;;;;;6.70;100.00;102125.28;4947988;28;20071;-75
2023/03/04 00:42:03;;;;;;;18.02;4.32;;;;;;;6.63;100.00;102108.50;4946819;28;20059;-74
2023/03/04 00:44:29;;;;;;;19.10;5.20;;;;;;;6.67;100.00;102114.13;4947034;28;20079;-74
2023/03/04 00:46:56;;;;;;;16.08;4.60;;;;;;;6.64;100.00;102110.09;4945213;28;20066;-75
2023/03/04 00:49:22;;;;;;;20.80;4.90;;;;;;;6.67;100.00;102111.38;4947230;28;20059;-75
2023/03/04 00:51:49;;;;;;;24.77;5.85;;;;;;;6.66;100.00;102107.84;4946296;28;20055;-72
2023/03/04 00:54:15;;;;;;;23.00;4.68;;;;;;;6.70;100.00;102105.19;4946380;28;20111;-75
2023/03/04 00:56:42;;;;;;;17.65;4.68;;;;;;;6.66;100.00;102107.03;4945899;28;20055;-75
2023/03/04 00:59:08;;;;;;;25.48;5.53;;;;;;;6.70;100.00;102105.19;4947492;28;20043;-74
2023/03/04 01:01:35;;;;;;;19.95;4.72;;;;;;;6.70;100.00;102105.19;4945845;28;20524;-75
2023/03/04 01:04:01;;;;;;;17.60;4.20;;;;;;;6.69;100.00;102109.09;4954009;28;20104;-75
2023/03/04 01:06:27;;;;;;;22.17;5.20;;;;;;;6.61;100.00;102105.28;4950598;28;20054;-74
2023/03/04 01:08:54;;;;;;;20.38;5.15;;;;;;;6.67;100.00;102114.94;4950253;28;20056;-75
2023/03/04 01:11:21;;;;;;;21.30;4.18;;;;;;;6.67;100.00;102103.94;4950012;28;20055;-74
2023/03/04 01:13:47;;;;;;;21.17;4.72;;;;;;;6.72;100.00;102100.97;4950414;28;20066;-74
2023/03/04 01:16:14;;;;;;;20.70;5.05;;;;;;;6.75;100.00;102099.50;4949682;28;20051;-74
2023/03/04 01:18:40;;;;;;;21.10;4.03;;;;;;;6.75;100.00;102105.78;4949699;28;20146;-74
2023/03/04 01:21:07;;;;;;;14.75;3.97;;;;;;;6.71;100.00;102096.59;4947270;28;20055;-75
2023/03/04 01:23:33;;;;;;;21.73;4.47;;;;;;;6.75;100.00;102097.53;4949212;28;20059;-74
2023/03/04 01:26:00;;;;;;;14.10;3.80;;;;;;;6.77;100.00;102097.19;4949416;28;20055;-75
2023/03/04 01:28:26;;;;;;;19.70;4.15;;;;;;;6.79;100.00;102100.44;4950143;28;20055;-75
2023/03/04 01:30:53;;;;;;;24.58;4.00;;;;;;;6.79;100.00;102094.94;4948747;28;20047;-72
2023/03/04 01:33:20;;;;;;;19.60;4.25;;;;;;;6.83;100.00;102095.84;4949230;28;20069;-75
2023/03/04 01:35:46;;;;;;;20.27;4.00;;;;;;;6.80;100.00;102091.03;4949925;28;20055;-74
2023/03/04 01:38:13;;;;;;;20.00;4.00;;;;;;;6.78;100.00;102091.38;4949631;28;20158;-75
2023/03/04 01:40:39;;;;;;;24.70;4.57;;;;;;;6.76;100.00;102084.59;4950489;28;20062;-74
2023/03/04 01:43:06;;;;;;;15.85;4.10;;;;;;;6.78;100.00;102082.31;4949484;28;20055;-75
2023/03/04 01:45:34;;;;;;;20.55;4.70;;;;;;;6.78;100.00;102085.84;4950121;28;20066;-74
2023/03/04 01:48:01;;;;;;;18.65;4.50;;;;;;;6.79;100.00;102092.97;4949325;28;20582;-74
2023/03/04 01:50:31;;;;;;;19.08;3.50;;;;;;;6.72;100.00;102081.69;4949310;28;20047;-75
2023/03/04 01:52:59;;;;;;;16.45;3.90;;;;;;;6.72;100.00;102069.91;4949339;28;20050;-74
2023/03/04 01:55:25;;;;;;;19.45;3.95;;;;;;;6.78;100.00;102076.81;4949420;28;20051;-75
2023/03/04 01:57:53;;;;;;;14.75;3.47;;;;;;;6.80;100.00;102088.28;4949432;28;20358;-75
2023/03/04 02:00:31;;;;;;;20.27;4.40;;;;;;;6.79;100.00;102081.97;4950016;28;20055;-75
2023/03/04 02:03:03;;;;;;;19.25;4.32;;;;;;;6.82;100.00;102083.25;4947615;28;20570;-74
2023/03/04 02:05:30;;;;;;;16.13;3.67;;;;;;;6.76;100.00;102081.84;4949186;28;20532;-75
2023/03/04 02:07:58;;;;;;;22.75;3.97;;;;;;;6.76;100.00;102081.84;4948848;28;20062;-75
2023/03/04 02:10:25;;;;;;;22.13;3.35;;;;;;;6.77;100.00;102080.69;4949602;28;20055;-75
2023/03/04 02:12:52;;;;;;;17.75;3.72;;;;;;;6.78;100.00;102074.84;4948656;28;20059;-75
2023/03/04 02:15:19;;;;;;;15.38;3.88;;;;;;;6.76;100.00;102074.41;4947231;28;20055;-73
2023/03/04 02:17:46;;;;;;;20.48;4.15;;;;;;;6.76;100.00;102076.34;4949930;28;20059;-75
2023/03/04 02:20:29;;;;;;;30.67;3.97;;;;;;;6.77;100.00;102076.00;4949094;28;20051;-75
2023/03/04 02:23:13;;;;;;;23.63;4.53;;;;;;;6.78;100.00;102080.34;4948046;28;20062;-75
2023/03/04 02:25:54;;;;;;;17.10;3.13;;;;;;;6.74;100.00;102071.19;4946853;28;20055;-75
2023/03/04 02:28:20;;;;;;;19.52;4.22;;;;;;;6.77;100.00;102066.94;4947760;28;20055;-75
2023/03/04 02:30:47;;;;;;;22.15;4.20;;;;;;;6.77;100.00;102067.75;4931482;29;20086;-75
2023/03/04 02:33:16;;;;;;;11.25;2.63;;;;;;;6.75;100.00;102064.53;4948446;28;20172;-75
2023/03/04 02:35:43;;;;;;;18.38;4.30;;;;;;;6.77;100.00;102058.69;4949020;28;20062;-75
2023/03/04 02:38:11;;;;;;;20.85;3.90;;;;;;;6.74;100.00;102051.91;4948098;28;20106;-75
2023/03/04 02:40:40;;;;;;;20.88;3.78;;;;;;;6.73;100.00;102052.25;4945655;28;20055;-76
2023/03/04 02:43:10;;;;;;;15.55;3.95;;;;;;;6.74;100.00;102059.34;4930706;29;20062;-75
2023/03/04 02:45:48;;;;;;;18.65;4.38;;;;;;;6.71;100.00;102058.09;4948197;28;20510;-75
2023/03/04 02:48:20;;;;;;;20.10;4.70;;;;;;;6.73;100.00;102047.56;4947717;28;20061;-75
2023/03/04 02:50:49;;;;;;;26.33;4.55;;;;;;;6.72;100.00;102037.69;4945893;28;20055;-75
2023/03/04 02:53:16;;;;;;;18.05;4.60;;;;;;;6.73;100.00;102035.75;4948156;28;20470;-75
2023/03/04 02:55:43;;;;;;;18.80;4.18;;;;;;;6.74;100.00;102037.34;4948337;28;20047;-75
2023/03/04 02:58:11;;;;;;;19.65;4.13;;;;;;;6.72;100.00;102028.66;4935420;29;20059;-75
2023/03/04 03:00:38;;;;;;;22.38;3.88;;;;;;;6.72;100.00;102036.91;4949261;28;20051;-76
2023/03/04 03:03:05;;;;;;;20.48;4.80;;;;;;;6.70;100.00;102031.75;4948200;28;20047;-74
2023/03/04 03:05:33;;;;;;;20.13;5.05;;;;;;;6.70;100.00;102031.75;4951212;28;20429;-76
2023/03/04 03:08:00;;;;;;;22.40;4.47;;;;;;;6.69;100.00;102029.34;4950504;28;20057;-75
2023/03/04 03:10:26;;;;;;;22.77;4.00;;;;;;;6.69;100.00;102034.84;4951622;28;20062;-75
2023/03/04 03:12:53;;;;;;;18.17;3.42;;;;;;;6.70;100.00;102033.69;4960077;28;20054;-75
2023/03/04 03:15:19;;;;;;;19.23;3.42;;;;;;;6.69;100.00;102032.09;4963212;28;20051;-75
2023/03/04 03:17:46;;;;;;;23.60;3.50;;;;;;;6.71;100.00;102027.03;4961050;28;20062;-75
2023/03/04 03:20:14;;;;;;;13.82;3.65;;;;;;;6.70;100.00;102028.19;4964956;28;20075;-75
2023/03/04 03:22:41;;;;;;;27.10;4.55;;;;;;;6.70;100.00;102020.75;4957641;28;20426;-74
2023/03/04 03:25:10;;;;;;;21.35;3.72;;;;;;;6.62;100.00;102010.63;4960543;28;20425;-75
2023/03/04 03:27:36;;;;;;;15.35;3.97;;;;;;;6.64;100.00;102021.28;4961065;28;20059;-74
2023/03/04 03:30:04;;;;;;;19.00;3.60;;;;;;;6.66;100.00;102024.50;4957020;28;20062;-74
2023/03/04 03:32:31;;;;;;;16.55;3.83;;;;;;;6.66;100.00;102024.50;4954680;28;20053;-75
2023/03/04 03:34:57;;;;;;;19.75;3.88;;;;;;;6.64;100.00;102011.09;4960683;28;20162;-75
2023/03/04 03:37:24;;;;;;;13.05;3.50;;;;;;;6.61;100.00;102014.50;4954004;28;20055;-75
2023/03/04 03:39:50;;;;;;;21.73;3.38;;;;;;;6.65;100.00;102020.16;4950853;28;20057;-75
2023/03/04 03:42:17;;;;;;;22.25;3.78;;;;;;;6.64;100.00;102011.09;4958003;28;20406;-75
2023/03/04 03:44:43;;;;;;;22.13;3.97;;;;;;;6.63;100.00;102015.00;4954760;28;20055;-76
2023/03/04 03:47:10;;;;;;;14.93;4.13;;;;;;;6.60;100.00;102012.09;4951189;28;20047;-75
2023/03/04 03:49:36;;;;;;;18.35;4.10;;;;;;;6.62;100.00;102018.09;4950791;28;20059;-75
2023/03/04 03:52:03;;;;;;;16.20;3.00;;;;;;;6.66;100.00;102013.50;4953042;28;20486;-75
2023/03/04 03:54:30;;;;;;;15.68;3.03;;;;;;;6.61;100.00;101999.97;4953222;28;20668;-74
2023/03/04 03:56:56;;;;;;;19.83;3.55;;;;;;;6.63;100.00;102008.69;4946170;28;20069;-74
2023/03/04 03:59:23;;;;;;;15.82;3.05;;;;;;;6.62;100.00;102013.38;4952010;28;20071;-74
2023/03/04 04:01:49;;;;;;;19.35;4.32;;;;;;;6.62;100.00;102007.88;4950200;28;20058;-75
2023/03/04 04:04:16;;;;;;;13.10;3.30;;;;;;;6.63;100.00;102008.69;4950615;28;20074;-75
2023/03/04 04:06:43;;;;;;;22.35;3.63;;;;;;;6.62;100.00;101998.81;4950879;28;20055;-75
2023/03/04 04:09:09;;;;;;;17.30;3.35;;;;;;;6.63;100.00;101998.50;4950817;28;20051;-75
2023/03/04 04:11:36;;;;;;;12.43;2.65;;;;;;;6.65;100.00;102006.41;4950208;28;20068;-75
2023/03/04 04:14:02;;;;;;;15.07;3.83;;;;;;;6.64;100.00;101999.28;4949497;28;20708;-75
2023/03/04 04:16:29;;;;;;;15.02;3.45;;;;;;;6.62;100.00;102001.56;4950820;28;20051;-75
2023/03/04 04:18:56;;;;;;;14.18;3.63;;;;;;;6.66;100.00;102006.06;4950479;28;20082;-75
2023/03/04 04:21:22;;;;;;;22.92;3.35;;;;;;;6.64;100.00;102011.09;4966022;28;20141;-75
2023/03/04 04:23:49;;;;;;;28.00;3.72;;;;;;;6.60;100.00;102009.34;4959099;28;20062;-75
2023/03/04 04:26:15;;;;;;;19.90;3.85;;;;;;;6.57;100.00;102007.28;4962887;28;20047;-75
2023/03/04 04:28:42;;;;;;;15.27;3.22;;;;;;;6.59;100.00;102003.06;4955571;28;20058;-75
2023/03/04 04:31:08;;;;;;;15.77;3.20;;;;;;;6.59;100.00;102003.06;4951180;28;20051;-75
2023/03/04 04:33:35;;;;;;;16.38;3.92;;;;;;;6.61;100.00;102013.72;4952481;28;20553;-76
2023/03/04 04:36:03;;;;;;;10.20;2.60;;;;;;;6.59;100.00;101997.56;4952574;28;20055;-76
2023/03/04 04:38:30;;;;;;;21.10;3.60;;;;;;;6.60;100.00;102003.84;4948938;28;20051;-75
2023/03/04 04:40:58;;;;;;;18.60;3.05;;;;;;;6.62;100.00;102005.13;4949011;28;20054;-75
2023/03/04 04:43:24;;;;;;;19.02;3.33;;;;;;;6.61;100.00;102009.00;4955540;28;20051;-75
2023/03/04 04:45:51;;;;;;;14.55;4.22;;;;;;;6.58;100.00;102003.41;4958982;28;20074;-75
2023/03/04 04:48:17;;;;;;;7.88;2.80;;;;;;;6.54;100.00;102005.19;4949715;28;20051;-76
2023/03/04 04:50:44;;;;;;;13.77;2.80;;;;;;;6.50;100.00;102013.34;4955805;28;20051;-74
2023/03/04 04:53:13;;;;;;;13.48;3.20;;;;;;;6.55;100.00;102015.09;4954937;28;20047;-72
2023/03/04 04:55:39;;;;;;;22.90;3.20;;;;;;;6.52;100.00;102008.28;4951946;28;20303;-75
2023/03/04 04:58:06;;;;;;;11.18;2.75;;;;;;;6.55;100.00;102018.63;4949608;28;20517;-75
2023/03/04 05:00:33;;;;;;;13.77;2.63;;;;;;;6.55;100.00;102015.09;4951369;28;20066;-75
2023/03/04 05:02:59;;;;;;;14.93;2.92;;;;;;;6.58;100.00;102015.19;4951721;28;20416;-74
2023/03/04 05:05:26;;;;;;;19.40;3.30;;;;;;;6.57;100.00;102018.28;4951186;28;20051;-75
2023/03/04 05:07:52;;;;;;;15.35;3.22;;;;;;;6.53;100.00;102018.16;4949845;28;20505;-75
2023/03/04 05:10:19;;;;;;;11.57;2.72;;;;;;;6.49;100.00;102020.00;4950962;28;20050;-75
2023/03/04 05:12:45;;;;;;;14.68;3.00;;;;;;;6.54;100.00;102021.69;4950695;28;20047;-76
2023/03/04 05:15:12;;;;;;;14.45;2.40;;;;;;;6.56;100.00;102019.44;4949869;28;20052;-75
2023/03/04 05:17:38;;;;;;;15.23;2.65;;;;;;;6.55;100.00;102015.88;4950482;28;20062;-75
2023/03/04 05:20:06;;;;;;;13.52;3.20;;;;;;;6.56;100.00;102005.69;4949461;28;20127;-76
2023/03/04 05:22:32;;;;;;;14.93;3.15;;;;;;;6.55;100.00;102010.38;4952252;28;20055;-75
2023/03/04 05:24:59;;;;;;;12.13;2.65;;;;;;;6.52;100.00;102015.75;4933594;28;20183;-75
2023/03/04 05:27:25;;;;;;;21.10;2.67;;;;;;;6.50;100.00;102005.09;4954597;28;20784;-76
2023/03/04 05:29:54;;;;;;;17.95;3.60;;;;;;;6.52;100.00;102007.50;4952809;28;20170;-76
2023/03/04 05:32:20;;;;;;;19.90;3.17;;;;;;;6.54;100.00;102011.50;4955262;28;20569;-75
2023/03/04 05:34:47;;;;;;;19.45;3.58;;;;;;;6.52;100.00;102002.78;4957677;28;20528;-75
2023/03/04 05:37:13;;;;;;;11.95;2.67;;;;;;;6.53;100.00;102012.66;4964533;28;20043;-75
2023/03/04 05:39:40;;;;;;;13.60;3.05;;;;;;;6.54;100.00;102010.69;4937792;29;20047;-74
2023/03/04 05:42:06;;;;;;;16.65;2.90;;;;;;;6.53;100.00;102009.09;4956123;28;20047;-74
2023/03/04 05:44:33;;;;;;;17.67;3.20;;;;;;;6.52;100.00;102007.50;4949691;28;20054;-74
2023/03/04 05:46:59;;;;;;;13.70;2.63;;;;;;;6.56;100.00;102013.94;4959837;28;20058;-74
2023/03/04 05:49:26;;;;;;;15.85;3.40;;;;;;;6.55;100.00;102006.84;4956241;28;20058;-74
2023/03/04 05:51:52;;;;;;;17.40;3.45;;;;;;;6.51;100.00;102012.19;4957156;28;20070;-74
2023/03/04 05:54:20;;;;;;;16.52;2.75;;;;;;;6.49;100.00;102014.50;4965052;28;20047;-75
2023/03/04 05:56:46;;;;;;;15.43;3.25;;;;;;;6.49;100.00;102016.44;4949714;28;20078;-74
2023/03/04 05:59:19;;;;;;;12.93;2.70;;;;;;;6.49;100.00;102016.44;4968558;28;20058;-74
2023/03/04 06:01:46;;;;;;;13.77;3.00;;;;;;;6.50;100.00;102026.28;4967290;28;20050;-75
2023/03/04 06:04:12;;;;;;;16.73;3.17;;;;;;;6.49;100.00;102014.50;4959130;28;20051;-72
2023/03/04 06:06:39;;;;;;;24.77;3.30;;;;;;;6.48;100.00;102021.13;4947381;29;20047;-74
2023/03/04 06:09:05;;;;;;;15.32;2.58;;;;;;;6.46;100.00;102022.59;4959661;28;20055;-74
2023/03/04 06:11:32;;;;;;;17.40;3.33;;;;;;;6.47;100.00;102027.75;4962182;28;20572;-76
2023/03/04 06:14:02;;;;;;;18.25;3.50;;;;;;;6.46;100.00;102028.09;4951912;28;20564;-75
2023/03/04 06:16:28;;;;;;;13.98;3.45;;;;;;;6.45;100.00;102023.75;4952669;29;20051;-76
2023/03/04 06:18:55;;;;;;;10.40;3.08;;;;;;;6.42;100.00;102024.44;4952446;29;20055;-76
2023/03/04 06:21:21;;;;;;;20.48;3.67;;;;;;;6.47;100.00;102035.19;4959654;28;20051;-75
2023/03/04 06:23:48;;;;;;;14.55;3.42;;;;;;;6.48;100.00;102040.34;4960176;28;20062;-75
2023/03/04 06:26:15;;;;;;;16.60;3.80;;;;;;;6.48;100.00;102034.88;4952417;28;20422;-77
2023/03/04 06:28:42;;;;;;;16.88;3.63;;;;;;;6.51;100.00;102041.66;4956118;28;20062;-76
2023/03/04 06:31:08;;;;;;;11.18;3.47;;;;;;;6.49;100.00;102036.50;4953142;28;20051;-73
2023/03/04 06:33:35;;;;;;;20.27;3.00;;;;;;;6.46;100.00;102036.34;4959792;28;20065;-76
2023/03/04 06:36:02;;;;;;;21.52;3.67;;;;;;;6.49;100.00;102041.19;4957377;28;20059;-76
2023/03/04 06:38:29;;;;;;;15.45;3.55;;;;;;;6.51;100.00;102042.44;4934963;29;20059;-77
2023/03/04 06:40:55;;;;;;;15.50;3.30;;;;;;;6.50;100.00;102043.59;4955594;28;20051;-76
2023/03/04 06:43:23;;;;;;;16.48;2.88;;;;;;;6.43;100.00;102037.84;4959111;28;20070;-76
2023/03/04 06:45:49;;;;;;;15.25;3.42;;;;;;;6.50;100.00;102045.53;4958169;28;20536;-76
2023/03/04 06:48:16;;;;;;;16.85;3.08;;;;;;;6.48;100.00;102048.59;4951756;28;20055;-75
2023/03/04 06:50:42;;;;;;;12.25;3.10;;;;;;;6.53;100.00;102053.09;4955715;28;20047;-74
2023/03/04 06:53:09;;;;;;;18.17;3.03;;;;;;;6.54;100.00;102050.00;4951163;28;20395;-74
2023/03/04 06:55:35;;;;;;;16.00;3.00;;;;;;;6.55;100.00;102051.63;4958518;28;20054;-76
2023/03/04 06:58:02;;;;;;;16.58;3.28;;;;;;;6.57;100.00;102054.03;4956145;28;20538;-75
2023/03/04 07:00:28;;;;;;;13.60;2.83;;;;;;;6.55;100.00;102050.84;4952173;28;20043;-77
2023/03/04 07:02:57;;;;;;;9.57;2.28;;;;;;;6.54;100.00;102060.19;4956495;28;20066;-77
2023/03/04 07:05:24;;;;;;;17.50;2.55;;;;;;;6.54;100.00;102054.69;4954576;28;20051;-76
2023/03/04 07:07:51;;;;;;;14.93;3.05;;;;;;;6.57;100.00;102059.53;4954603;28;20047;-74
2023/03/04 07:10:18;;;;;;;15.10;2.78;;;;;;;6.56;100.00;102056.00;4950984;28;20051;-74
2023/03/04 07:12:45;;;;;;;14.20;2.53;;;;;;;6.56;100.00;102063.44;4950615;29;20043;-75
2023/03/04 07:15:12;;;;;;;11.10;2.75;;;;;;;6.53;100.00;102050.34;4949347;29;20134;-77
2023/03/04 07:17:38;;;;;;;19.90;2.97;;;;;;;6.55;100.00;102059.09;4933695;29;20057;-72
2023/03/04 07:20:05;;;;;;;8.57;2.20;;;;;;;6.58;100.00;102061.94;4949764;28;20051;-76
2023/03/04 07:22:32;;;;;;;11.52;2.85;;;;;;;6.62;100.00;102064.84;4950827;28;20055;-73
2023/03/04 07:24:58;;;;;;;12.00;2.53;;;;;;;6.63;100.00;102066.44;4950188;28;20053;-76
2023/03/04 07:27:25;;;;;;;11.18;2.78;;;;;;;6.60;100.00;102069.84;4948742;28;20063;-75
2023/03/04 07:29:51;;;;;;;15.13;2.63;;;;;;;6.57;100.00;102063.09;4951223;28;20181;-75
2023/03/04 07:32:18;;;;;;;10.60;2.90;;;;;;;6.54;100.00;102072.00;4948430;28;20126;-75
2023/03/04 07:34:45;;;;;;;8.75;2.50;;;;;;;6.55;100.00;102070.09;4955040;28;20398;-75
2023/03/04 07:37:11;;;;;;;11.57;3.28;;;;;;;6.56;100.00;102071.69;4952656;28;20054;-76
2023/03/04 07:39:38;;;;;;;17.70;2.97;;;;;;;6.59;100.00;102073.75;4952343;28;20505;-71
2023/03/04 07:42:04;;;;;;;13.07;2.63;;;;;;;6.64;100.00;102068.03;4950739;28;20051;-71
2023/03/04 07:44:31;;;;;;;14.52;3.15;;;;;;;6.67;100.00;102065.44;4938925;28;20496;-74
2023/03/04 07:46:57;;;;;;;12.20;3.08;;;;;;;6.73;100.00;102066.84;4949579;28;20058;-74
2023/03/04 07:49:24;;;;;;;8.95;2.63;;;;;;;6.79;100.00;102072.91;4948774;28;20498;-73
2023/03/04 07:51:50;;;;;;;13.55;3.03;;;;;;;6.87;100.00;102077.53;4949600;28;20054;-73
2023/03/04 07:54:18;;;;;;;12.65;3.05;;;;;;;6.93;100.00;102073.41;4950098;28;20095;-72
2023/03/04 07:56:45;;;;;;;11.45;2.80;;;;;;;6.92;100.00;102069.06;4952339;28;20059;-72
2023/03/04 07:59:11;;;;;;;10.38;2.70;;;;;;;6.96;100.00;102067.22;4950773;28;20047;-71
2023/03/04 08:01:38;;;;;;;13.13;2.63;;;;;;;7.04;100.00;102064.38;4950092;28;20150;-71
2023/03/04 08:04:06;;;;;;;4.63;1.63;;;;;;;6.98;100.00;102060.25;4950696;28;20106;-71
2023/03/04 08:06:33;;;;;;;16.90;2.65;;;;;;;6.93;100.00;102065.97;4950320;28;20047;-70
2023/03/04 08:09:04;;;;;;;17.13;2.80;;;;;;;7.04;100.00;102064.38;4950489;28;20069;-71
2023/03/04 08:11:32;;;;;;;18.00;2.67;;;;;;;7.18;100.00;102072.31;4950019;28;20065;-71
2023/03/04 08:13:58;;;;;;;8.65;2.08;;;;;;;7.12;100.00;102070.94;4949221;28;20174;-71
2023/03/04 08:16:26;;;;;;;17.35;3.72;;;;;;;7.13;100.00;102067.81;4961128;28;20055;-70
2023/03/04 08:18:55;;;;;;;12.38;2.67;;;;;;;7.21;100.00;102071.63;4957081;28;20212;-70
2023/03/04 08:21:25;;;;;;;9.30;2.60;;;;;;;7.19;100.00;102068.44;4956808;28;20162;-71
2023/03/04 08:23:52;;;;;;;9.88;2.42;;;;;;;7.28;100.00;102075.44;4958253;28;20043;-71
2023/03/04 08:26:29;;;;;;;8.18;2.58;;;;;;;7.36;100.00;102070.97;4955861;28;20074;-71
2023/03/04 08:28:56;;;;;;;10.00;2.33;;;;;;;7.39;100.00;102082.09;4962642;28;20047;-71
2023/03/04 08:31:24;;;;;;;12.55;2.50;;;;;;;7.41;100.00;102079.81;4947727;29;20055;-71
2023/03/04 08:33:51;;;;;;;13.13;2.90;;;;;;;7.37;100.00;102075.31;4949672;28;20070;-71
2023/03/04 08:36:18;;;;;;;10.57;2.95;;;;;;;7.51;100.00;102073.03;4963815;28;20520;-72
2023/03/04 08:38:45;;;;;;;8.45;2.25;;;;;;;7.63;100.00;102075.81;4946992;28;20525;-72
2023/03/04 08:41:12;;;;;;;13.18;2.80;;;;;;;7.69;100.00;102074.41;4960832;28;20051;-72
2023/03/04 08:43:39;;;;;;;8.90;2.10;;;;;;;7.79;100.00;102068.44;4961497;28;20079;-72
2023/03/04 08:46:06;;;;;;;8.48;2.17;;;;;;;7.80;100.00;102070.06;4965951;28;20059;-72
2023/03/04 08:48:35;;;;;;;7.03;2.17;;;;;;;7.81;100.00;102071.66;4966497;28;20398;-71
2023/03/04 08:51:13;;;;;;;9.90;1.83;;;;;;;7.93;100.00;102072.44;4955917;28;20498;-71
2023/03/04 08:53:39;;;;;;;16.35;2.80;;;;;;;8.02;100.00;102075.88;4954564;28;20039;-71
2023/03/04 08:56:07;;;;;;;8.32;2.53;;;;;;;7.91;100.00;102069.22;4950754;28;20073;-72
2023/03/04 08:58:35;;;;;;;16.60;2.65;;;;;;;7.90;100.00;102077.84;4952261;28;20048;-71
2023/03/04 09:01:02;;;;;;;14.85;2.58;;;;;;;7.88;100.00;102078.19;4951466;28;20058;-72
2023/03/04 09:03:29;;;;;;;8.20;2.22;;;;;;;7.78;100.00;102066.84;4960539;28;20374;-71
2023/03/04 09:05:55;;;;;;;10.55;2.53;;;;;;;7.84;100.00;102070.97;4954479;28;20057;-72
2023/03/04 09:08:22;;;;;;;11.57;3.40;;;;;;;7.81;100.00;102071.66;4947612;28;20118;-72
2023/03/04 09:10:52;;;;;;;13.80;2.58;;;;;;;7.83;100.00;102070.16;4951689;28;20075;-72
2023/03/04 09:13:19;;;;;;;14.88;2.72;;;;;;;7.93;100.00;102068.88;4962076;28;20497;-71
2023/03/04 09:15:48;;;;;;;3.78;1.08;;;;;;;7.99;100.00;102067.47;4960869;28;20058;-71
2023/03/04 09:18:16;;;;;;;10.55;3.70;;;;;;;7.95;100.00;102070.16;4951543;28;20074;-71
2023/03/04 09:20:44;;;;;;;13.23;3.35;;;;;;;8.01;100.00;102065.97;4955129;28;20047;-70
2023/03/04 09:23:11;;;;;;;13.55;2.55;;;;;;;7.97;100.00;102056.03;4958691;28;21473;-73
2023/03/04 09:25:38;;;;;;;12.27;2.38;;;;;;;8.03;100.00;102076.66;4962798;28;20057;-71
2023/03/04 09:28:05;;;;;;;8.18;2.13;;;;;;;8.07;100.00;102069.31;4959937;28;20683;-70
2023/03/04 09:30:33;;;;;;;8.25;2.10;;;;;;;7.95;100.00;102061.06;4955115;28;20051;-69
2023/03/04 09:33:00;;;;;;;13.05;2.60;;;;;;;8.05;100.00;102066.09;4952606;29;20086;-71
2023/03/04 09:35:28;;;;;;;14.77;2.83;;;;;;;8.06;100.00;102067.69;4934409;29;20137;-71
2023/03/04 09:37:57;;;;;;;6.80;2.30;;;;;;;8.13;100.00;102056.09;4952455;28;20189;-71
2023/03/04 09:40:31;;;;;;;12.98;2.85;;;;;;;8.09;100.00;102055.19;4954919;28;20047;-71
2023/03/04 09:43:02;;;;;;;11.05;2.80;;;;;;;8.23;100.00;102050.91;4952258;28;20786;-71
2023/03/04 09:45:52;;;;;;;15.20;4.85;;;;;;;8.22;100.00;102056.78;4952599;28;20078;-71
2023/03/04 09:48:26;;;;;;;16.05;3.75;;;;;;;8.23;100.00;102056.44;4952755;28;20083;-70
2023/03/04 09:51:02;;;;;;;12.60;4.00;;;;;;;8.23;100.00;102059.19;4953309;28;20110;-71
2023/03/04 09:53:39;;;;;;;11.10;3.88;;;;;;;8.23;100.00;102055.66;4955958;28;20055;-71
2023/03/04 09:56:06;;;;;;;13.13;3.47;;;;;;;8.19;100.00;102054.69;4959137;28;20054;-72
2023/03/04 09:58:53;;;;;;;19.85;5.97;;;;;;;8.15;100.00;102048.25;4961150;28;20059;-71
2023/03/04 10:01:20;;;;;;;18.63;4.72;;;;;;;8.14;100.00;102054.94;4959082;28;20051;-72
2023/03/04 10:04:06;;;;;;;14.48;4.78;;;;;;;8.22;100.00;102057.59;4959497;28;20051;-71
2023/03/04 10:06:33;;;;;;;10.88;4.03;;;;;;;8.09;100.00;102055.97;4948270;28;20055;-71
2023/03/04 10:09:20;;;;;;;13.45;4.20;;;;;;;8.28;100.00;102047.94;4952296;28;20058;-71
2023/03/04 10:12:00;;;;;;;10.50;3.40;;;;;;;8.35;100.00;102048.13;4955633;28;20058;-72
2023/03/04 10:14:52;;;;;;;10.55;2.78;;;;;;;8.38;100.00;102044.69;4957221;28;20129;-72
2023/03/04 10:17:28;;;;;;;6.30;2.15;;;;;;;8.46;100.00;102049.22;4942126;28;20055;-73
2023/03/04 10:20:02;;;;;;;7.03;2.20;;;;;;;8.48;100.00;102052.47;4946600;28;20501;-72
2023/03/04 10:22:55;;;;;;;7.45;1.70;;;;;;;8.39;100.00;102040.75;4946851;28;20070;-71
2023/03/04 10:25:26;;;;;;;6.32;2.25;;;;;;;8.53;100.00;102037.59;4945748;28;20055;-72
2023/03/04 10:28:01;;;;;;;6.38;2.08;;;;;;;8.45;100.00;102036.59;4931632;28;20142;-71
2023/03/04 10:30:49;;;;;;;7.03;2.05;;;;;;;8.50;100.00;102035.56;4946807;28;20055;-72
2023/03/04 10:33:29;;;;;;;11.02;2.58;;;;;;;8.46;100.00;102035.44;4945681;28;20508;-71
2023/03/04 10:36:01;;;;;;;9.55;2.53;;;;;;;8.41;100.00;102034.88;4947516;28;20135;-71
2023/03/04 10:38:34;;;;;;;12.90;2.83;;;;;;;8.40;100.00;102038.81;4943439;28;20525;-74
2023/03/04 10:41:12;;;;;;;8.75;2.38;;;;;;;8.39;100.00;102045.47;4948100;28;20081;-71
2023/03/04 10:43:39;;;;;;;3.15;1.60;;;;;;;8.38;100.00;102036.41;4947604;28;20498;-72
2023/03/04 10:46:09;;;;;;;10.27;2.90;;;;;;;8.31;100.00;102044.47;4946839;28;20513;-72
2023/03/04 10:48:39;;;;;;;13.02;2.80;;;;;;;8.32;100.00;102036.97;4942958;28;20066;-72
2023/03/04 10:51:19;;;;;;;12.35;2.30;;;;;;;8.31;100.00;102038.97;4945450;28;20051;-71
2023/03/04 10:53:47;;;;;;;7.85;2.38;;;;;;;8.26;100.00;102030.91;4948552;28;20050;-72
2023/03/04 10:56:30;;;;;;;5.80;1.75;;;;;;;8.17;100.00;102044.03;4944522;28;20078;-70
2023/03/04 10:59:32;;;;;;;4.13;1.58;;;;;;;8.21;100.00;102035.84;4947274;28;20526;-72
2023/03/04 11:02:18;;;;;;;10.50;2.45;;;;;;;8.21;100.00;102033.91;4946079;28;20047;-71
2023/03/04 11:05:03;;;;;;;6.43;2.03;;;;;;;8.23;100.00;102034.38;4944830;28;20055;-73
2023/03/04 11:07:31;;;;;;;4.55;1.80;;;;;;;8.26;100.00;102030.91;4945135;28;20051;-72
2023/03/04 11:10:22;;;;;;;11.23;2.17;;;;;;;8.37;100.00;102026.50;4947123;28;20047;-71
2023/03/04 11:12:57;;;;;;;4.30;2.00;;;;;;;8.44;100.00;102031.44;4947312;28;20051;-70
2023/03/04 11:15:26;;;;;;;9.90;2.60;;;;;;;8.49;100.00;102029.22;4947992;28;20051;-71
2023/03/04 11:17:58;;;;;;;5.78;1.90;;;;;;;8.49;100.00;102029.22;4946477;28;20106;-72
2023/03/04 11:20:35;;;;;;;6.32;2.10;;;;;;;8.53;100.00;102023.78;4948369;28;20050;-73
2023/03/04 11:23:10;;;;;;;7.38;1.90;;;;;;;8.59;100.00;102023.19;4946148;28;20133;-72
2023/03/04 11:25:42;;;;;;;6.28;1.63;;;;;;;8.59;100.00;102019.63;4947829;28;20055;-71